Time;durP1;ratioP1;P1;durP2;ratioP2;P2;SDS_P1;SDS_P2;PMS_P1;PMS_P2;Temp;Humidity;BMP_temperature;BMP_pressure;BME280_temperature;BME280_humidity;BME280_pressure;Samples;Min_cycle;Max_cycle;Signal;HPM_P1;HPM_P2
2022/09/21 00:00:43;;;;;;;16.85;9.77;;;;;;;10.70;100.00;99017.47;5174290;27;20516;-49
2022/09/21 00:03:09;;;;;;;13.98;10.02;;;;;;;10.68;100.00;99017.03;5174494;27;20046;-48
2022/09/21 00:05:36;;;;;;;17.35;10.02;;;;;;;10.63;100.00;99017.34;5174439;27;20497;-49
2022/09/21 00:08:04;;;;;;;16.23;10.25;;;;;;;10.63;100.00;99015.41;5174162;27;20056;-49
2022/09/21 00:10:31;;;;;;;18.15;9.65;;;;;;;10.64;100.00;99016.22;5174551;27;20412;-49
2022/09/21 00:13:01;;;;;;;15.02;9.45;;;;;;;10.56;100.00;99009.81;5174129;27;20056;-49
2022/09/21 00:15:29;;;;;;;16.15;9.43;;;;;;;10.57;100.00;99008.66;5174650;27;20050;-49
2022/09/21 00:17:57;;;;;;;19.77;10.57;;;;;;;10.57;100.00;99008.66;5174325;27;20065;-48
2022/09/21 00:20:24;;;;;;;20.15;10.98;;;;;;;10.59;100.00;99003.59;5174138;27;20050;-49
2022/09/21 00:22:51;;;;;;;21.60;10.75;;;;;;;10.60;100.00;99002.44;5174205;27;20046;-49
2022/09/21 00:25:18;;;;;;;21.92;11.15;;;;;;;10.56;100.00;99002.41;5174032;27;20077;-50
2022/09/21 00:27:50;;;;;;;19.98;10.85;;;;;;;10.59;100.00;99003.59;5174251;27;20069;-49
2022/09/21 00:30:16;;;;;;;21.27;11.07;;;;;;;10.38;100.00;99012.28;5173837;27;20428;-52
2022/09/21 00:32:43;;;;;;;16.33;10.98;;;;;;;10.52;100.00;98998.78;5174265;27;20506;-52
2022/09/21 00:35:09;;;;;;;18.27;10.32;;;;;;;10.60;100.00;99003.22;5173780;27;20190;-49
2022/09/21 00:37:35;;;;;;;21.65;11.95;;;;;;;10.64;100.00;98999.75;5174129;27;20046;-52
2022/09/21 00:40:03;;;;;;;23.23;11.27;;;;;;;10.60;100.00;99014.19;5172172;27;20043;-52
2022/09/21 00:42:31;;;;;;;21.02;11.77;;;;;;;10.62;100.00;99011.06;5174093;27;20149;-52
2022/09/21 00:44:58;;;;;;;21.17;11.55;;;;;;;10.66;100.00;99011.91;5173554;27;20057;-50
2022/09/21 00:47:30;;;;;;;21.20;10.80;;;;;;;10.72;100.00;99017.88;5173600;27;20057;-53
2022/09/21 00:49:58;;;;;;;22.15;10.90;;;;;;;10.71;100.00;99011.63;5173709;27;20093;-50
2022/09/21 00:52:26;;;;;;;17.17;10.43;;;;;;;10.69;100.00;99013.91;5173408;27;20056;-52
2022/09/21 00:54:56;;;;;;;20.30;11.52;;;;;;;10.62;100.00;99015.78;5173548;27;20050;-52
2022/09/21 00:57:26;;;;;;;24.02;10.60;;;;;;;10.69;100.00;99021.34;5173419;27;20095;-53
2022/09/21 00:59:57;;;;;;;19.40;11.10;;;;;;;10.70;100.00;99018.25;5173615;27;20046;-51
2022/09/21 01:02:24;;;;;;;17.02;10.63;;;;;;;10.65;100.00;99020.53;5173544;27;20528;-49
2022/09/21 01:04:53;;;;;;;17.85;10.73;;;;;;;10.71;100.00;99016.31;5173804;27;20050;-50
2022/09/21 01:07:24;;;;;;;15.35;10.35;;;;;;;10.80;100.00;99011.34;5173186;27;20057;-49
2022/09/21 01:09:54;;;;;;;15.45;9.35;;;;;;;10.72;100.00;99020.63;5173457;27;20106;-50
2022/09/21 01:12:33;;;;;;;21.27;10.80;;;;;;;10.78;100.00;99025.41;5173268;27;20042;-51
2022/09/21 01:15:18;;;;;;;17.75;10.43;;;;;;;10.76;100.00;99025.00;5173261;27;20394;-49
2022/09/21 01:17:53;;;;;;;15.55;9.40;;;;;;;10.79;100.00;99048.94;5173249;27;20457;-51
2022/09/21 01:20:55;;;;;;;15.00;9.23;;;;;;;10.68;100.00;99050.72;5173011;27;20050;-52
2022/09/21 01:23:37;;;;;;;16.05;10.05;;;;;;;10.45;100.00;99044.47;5173641;27;20643;-50
2022/09/21 01:26:14;;;;;;;22.00;11.05;;;;;;;10.59;100.00;99036.47;5172934;27;20493;-53
2022/09/21 01:29:12;;;;;;;15.32;9.07;;;;;;;10.70;100.00;99031.97;5172892;27;20523;-51
2022/09/21 01:31:43;;;;;;;14.40;9.80;;;;;;;10.73;100.00;99033.97;5173249;27;20052;-50
2022/09/21 01:34:16;;;;;;;15.35;9.15;;;;;;;10.68;100.00;99037.03;5172727;27;20068;-49
2022/09/21 01:36:47;;;;;;;14.65;9.27;;;;;;;10.69;100.00;99035.84;5173156;27;20505;-51
2022/09/21 01:39:16;;;;;;;18.05;9.77;;;;;;;10.68;100.00;99034.28;5172897;27;20436;-49
2022/09/21 01:41:46;;;;;;;18.80;10.02;;;;;;;10.70;100.00;99031.97;5172641;27;20046;-49
2022/09/21 01:44:18;;;;;;;15.48;9.93;;;;;;;10.71;100.00;99038.25;5172745;27;20060;-51
2022/09/21 01:46:46;;;;;;;14.10;9.35;;;;;;;10.68;100.00;99038.97;5172540;27;20516;-51
2022/09/21 01:49:15;;;;;;;14.85;9.77;;;;;;;10.64;100.00;99049.09;5172941;27;20056;-49
2022/09/21 01:51:48;;;;;;;15.73;9.95;;;;;;;10.69;100.00;99052.31;5172066;27;20054;-51
2022/09/21 01:54:19;;;;;;;20.63;9.77;;;;;;;10.63;100.00;99051.06;5172929;27;20133;-49
2022/09/21 01:56:50;;;;;;;20.98;10.20;;;;;;;10.63;100.00;99058.47;5172636;27;20090;-49
2022/09/21 01:59:21;;;;;;;15.70;9.02;;;;;;;10.58;100.00;99060.38;5172871;27;20046;-49
2022/09/21 02:01:53;;;;;;;18.75;10.23;;;;;;;10.65;100.00;99064.38;5172776;27;20413;-49
2022/09/21 02:04:19;;;;;;;17.02;10.57;;;;;;;10.60;100.00;99063.53;5172951;27;20042;-48
2022/09/21 02:06:47;;;;;;;18.70;9.45;;;;;;;10.59;100.00;99063.91;5172956;27;20050;-49
2022/09/21 02:09:13;;;;;;;15.90;9.88;;;;;;;10.61;100.00;99061.59;5172672;27;20049;-51
2022/09/21 02:11:42;;;;;;;21.35;9.95;;;;;;;10.62;100.00;99063.16;5172815;27;20054;-50
2022/09/21 02:14:10;;;;;;;15.95;9.40;;;;;;;10.60;100.00;99066.28;5172469;27;20428;-50
2022/09/21 02:16:44;;;;;;;15.43;9.60;;;;;;;10.60;100.00;99065.50;5172576;27;20083;-48
2022/09/21 02:19:14;;;;;;;13.60;8.77;;;;;;;10.62;100.00;99068.66;5172276;27;20057;-49
2022/09/21 02:21:56;;;;;;;13.52;8.93;;;;;;;10.57;100.00;99075.25;5172187;27;20050;-49
2022/09/21 02:24:32;;;;;;;13.20;9.15;;;;;;;10.53;100.00;99079.88;5172343;27;20050;-50
2022/09/21 02:27:04;;;;;;;16.38;9.98;;;;;;;10.46;100.00;99074.28;5172252;27;20046;-52
2022/09/21 02:29:39;;;;;;;13.77;9.10;;;;;;;10.52;100.00;99066.53;5172768;27;20047;-49
2022/09/21 02:32:11;;;;;;;15.60;9.55;;;;;;;10.57;100.00;99072.50;5172234;27;20102;-50
2022/09/21 02:34:45;;;;;;;13.95;9.02;;;;;;;10.56;100.00;99073.66;5172286;27;20050;-49
2022/09/21 02:37:20;;;;;;;14.47;8.37;;;;;;;10.60;100.00;99069.03;5171983;27;20433;-49
2022/09/21 02:39:54;;;;;;;16.95;9.85;;;;;;;10.59;100.00;99078.38;5172227;27;20049;-49
2022/09/21 02:42:26;;;;;;;14.30;8.93;;;;;;;10.54;100.00;99080.66;5171874;27;20046;-48
2022/09/21 02:45:00;;;;;;;20.35;9.45;;;;;;;10.57;100.00;99083.47;5171810;27;20187;-48
2022/09/21 02:47:34;;;;;;;15.95;9.35;;;;;;;10.53;100.00;99087.28;5171891;27;20043;-49
2022/09/21 02:50:05;;;;;;;17.25;10.18;;;;;;;10.50;100.00;99080.59;5172152;27;20528;-50
2022/09/21 02:52:33;;;;;;;15.30;9.15;;;;;;;10.58;100.00;99082.28;5171999;27;20061;-49
2022/09/21 02:55:01;;;;;;;15.30;9.43;;;;;;;10.59;100.00;99080.34;5171952;27;20416;-50
2022/09/21 02:57:28;;;;;;;14.43;9.25;;;;;;;10.58;100.00;99078.78;5172314;27;20046;-51
2022/09/21 02:59:54;;;;;;;16.70;9.13;;;;;;;10.62;100.00;99076.88;5171835;27;20052;-51
2022/09/21 03:02:20;;;;;;;17.63;10.05;;;;;;;10.56;100.00;99081.88;5171870;27;20428;-53
2022/09/21 03:04:48;;;;;;;15.35;10.02;;;;;;;10.60;100.00;99079.22;5174779;27;20093;-50
2022/09/21 03:07:15;;;;;;;15.63;9.18;;;;;;;10.63;100.00;99081.22;5175531;27;20555;-52
2022/09/21 03:09:42;;;;;;;19.58;9.52;;;;;;;10.66;100.00;99090.63;5175338;27;20050;-53
2022/09/21 03:12:08;;;;;;;18.63;10.75;;;;;;;10.61;100.00;99086.25;5175331;27;20094;-52
2022/09/21 03:14:34;;;;;;;19.95;10.80;;;;;;;10.52;100.00;99085.72;5175176;27;20056;-52
2022/09/21 03:17:01;;;;;;;15.63;9.77;;;;;;;10.60;100.00;99084.69;5175286;27;20058;-50
2022/09/21 03:19:28;;;;;;;16.85;10.27;;;;;;;10.64;100.00;99088.28;5175385;27;20490;-49
2022/09/21 03:21:55;;;;;;;15.10;9.88;;;;;;;10.60;100.00;99095.66;5175054;27;20054;-53
2022/09/21 03:27:01;;;;;;;18.38;10.18;;;;;;;10.66;100.00;99098.84;5173883;27;20045;-52
2022/09/21 03:29:28;;;;;;;12.23;8.98;;;;;;;10.61;100.00;99105.44;5175125;27;20501;-49
2022/09/21 03:31:54;;;;;;;16.70;10.43;;;;;;;10.55;100.00;99104.97;5174996;27;20141;-51
2022/09/21 03:34:21;;;;;;;21.20;10.73;;;;;;;10.51;100.00;99104.13;5174743;27;20042;-49
2022/09/21 03:36:48;;;;;;;14.43;9.18;;;;;;;10.54;100.00;99097.91;5174989;27;20061;-52
2022/09/21 03:39:14;;;;;;;18.27;10.43;;;;;;;10.58;100.00;99111.66;5174986;27;20493;-51
2022/09/21 03:41:41;;;;;;;15.75;8.90;;;;;;;10.53;100.00;99111.94;5174801;27;20082;-49
2022/09/21 03:44:07;;;;;;;16.30;10.70;;;;;;;10.46;100.00;99118.13;5174579;27;20069;-49
2022/09/21 03:46:34;;;;;;;14.23;8.88;;;;;;;10.38;100.00;99108.19;5175117;27;20462;-49
2022/09/21 03:49:01;;;;;;;18.90;9.20;;;;;;;10.51;100.00;99114.28;5174568;27;20057;-49
2022/09/21 03:51:29;;;;;;;19.08;10.05;;;;;;;10.44;100.00;99111.44;5174996;27;20050;-48
2022/09/21 03:53:56;;;;;;;15.48;8.48;;;;;;;10.33;100.00;99112.03;5174267;27;20122;-53
2022/09/21 03:56:23;;;;;;;15.52;9.13;;;;;;;10.45;100.00;99115.75;5174434;27;20061;-51
2022/09/21 03:58:49;;;;;;;15.77;9.38;;;;;;;10.39;100.00;99120.72;5174419;27;20058;-49
2022/09/21 04:01:15;;;;;;;15.68;8.52;;;;;;;10.44;100.00;99112.22;5174251;27;20461;-50
2022/09/21 04:03:41;;;;;;;15.32;9.45;;;;;;;10.52;100.00;99118.59;5174509;27;20043;-50
2022/09/21 04:06:09;;;;;;;12.20;8.25;;;;;;;10.37;100.00;99120.31;5174469;27;20060;-49
2022/09/21 04:08:35;;;;;;;15.32;9.02;;;;;;;10.41;100.00;99114.91;5174710;27;20042;-50
2022/09/21 04:11:08;;;;;;;15.48;9.15;;;;;;;10.51;100.00;99106.06;5174613;27;20054;-49
2022/09/21 04:13:35;;;;;;;13.70;8.73;;;;;;;10.54;100.00;99114.34;5174193;27;20043;-49
2022/09/21 04:16:01;;;;;;;12.95;8.63;;;;;;;10.59;100.00;99121.47;5173918;27;20527;-49
2022/09/21 04:18:28;;;;;;;13.38;8.05;;;;;;;10.61;100.00;99130.13;5174367;27;20541;-49
2022/09/21 04:20:54;;;;;;;12.65;7.90;;;;;;;10.59;100.00;99130.47;5173944;27;20137;-48
2022/09/21 04:23:21;;;;;;;18.27;7.50;;;;;;;10.65;100.00;99138.41;5174340;27;20049;-49
2022/09/21 04:25:50;;;;;;;13.45;8.68;;;;;;;10.60;100.00;99147.75;5174250;27;20054;-49
2022/09/21 04:28:16;;;;;;;11.23;7.45;;;;;;;10.65;100.00;99139.19;5173857;27;20042;-49
2022/09/21 04:30:43;;;;;;;13.13;8.57;;;;;;;10.67;100.00;99149.81;5173928;27;20084;-52
2022/09/21 04:33:09;;;;;;;14.38;8.73;;;;;;;10.67;100.00;99158.81;5173638;27;20137;-49
2022/09/21 04:35:36;;;;;;;12.60;7.53;;;;;;;10.63;100.00;99157.97;5173972;27;20497;-50
2022/09/21 04:38:02;;;;;;;15.82;8.48;;;;;;;10.75;100.00;99159.72;5173763;27;20058;-50
2022/09/21 04:40:28;;;;;;;12.73;7.18;;;;;;;10.16;100.00;99169.19;5173660;27;20046;-49
2022/09/21 04:42:55;;;;;;;12.60;8.13;;;;;;;10.63;100.00;99147.00;5173573;27;20053;-49
2022/09/21 04:45:22;;;;;;;11.18;6.75;;;;;;;10.63;100.00;99151.69;5173865;27;20141;-55
2022/09/21 04:47:49;;;;;;;10.73;7.22;;;;;;;10.71;100.00;99153.41;5173509;27;20089;-54
2022/09/21 04:50:15;;;;;;;12.00;7.15;;;;;;;10.72;100.00;99160.47;5173779;27;20042;-54
2022/09/21 04:52:42;;;;;;;14.30;7.63;;;;;;;10.81;100.00;99161.81;5173625;27;20093;-56
2022/09/21 04:55:08;;;;;;;15.07;7.20;;;;;;;10.88;100.00;99165.81;5173530;27;20061;-56
2022/09/21 04:57:35;;;;;;;10.57;6.50;;;;;;;10.88;100.00;99176.78;5173947;27;20042;-53
2022/09/21 05:00:02;;;;;;;12.82;7.13;;;;;;;10.75;100.00;99182.44;5173577;27;20046;-57
2022/09/21 05:02:28;;;;;;;12.13;7.32;;;;;;;10.73;100.00;99182.03;5173659;27;20061;-57
2022/09/21 05:04:55;;;;;;;14.32;7.75;;;;;;;10.91;100.00;99185.06;5173354;27;20046;-56
2022/09/21 05:07:21;;;;;;;10.80;6.30;;;;;;;10.96;100.00;99190.28;5173569;27;20046;-53
2022/09/21 05:10:02;;;;;;;11.63;6.57;;;;;;;10.75;100.00;99204.38;5173194;27;20580;-54
2022/09/21 05:12:29;;;;;;;11.07;6.35;;;;;;;10.91;100.00;99185.06;5173186;27;20050;-54
2022/09/21 05:14:55;;;;;;;9.88;7.20;;;;;;;11.10;100.00;99183.44;5172995;27;20524;-61
2022/09/21 05:17:22;;;;;;;15.52;7.35;;;;;;;11.07;100.00;99196.72;5173228;27;20046;-56
2022/09/21 05:19:48;;;;;;;12.38;6.82;;;;;;;10.78;100.00;99200.91;5173283;27;20050;-55
2022/09/21 05:22:15;;;;;;;11.63;6.40;;;;;;;10.93;100.00;99187.44;5172771;27;20057;-57
2022/09/21 05:24:41;;;;;;;9.07;5.93;;;;;;;11.05;100.00;99188.03;5173155;27;20042;-54
2022/09/21 05:27:07;;;;;;;9.55;5.95;;;;;;;11.05;100.00;99195.50;5172023;27;20109;-56
2022/09/21 05:29:34;;;;;;;10.27;6.32;;;;;;;11.21;100.00;99223.59;5173148;27;20046;-57
2022/09/21 05:32:07;;;;;;;10.48;6.15;;;;;;;11.33;100.00;99225.34;5172665;27;20056;-57
2022/09/21 05:34:45;;;;;;;7.72;5.93;;;;;;;11.34;100.00;99246.16;5172942;27;20097;-56
2022/09/21 05:37:23;;;;;;;10.18;6.38;;;;;;;11.38;100.00;99252.47;5172786;27;20078;-61
2022/09/21 05:39:50;;;;;;;9.60;6.18;;;;;;;11.52;100.00;99255.44;5172582;27;20052;-62
2022/09/21 05:42:17;;;;;;;8.20;5.60;;;;;;;11.55;100.00;99253.91;5172640;27;20042;-62
2022/09/21 05:44:43;;;;;;;15.75;6.15;;;;;;;11.66;100.00;99267.78;5172614;27;20433;-63
2022/09/21 05:47:23;;;;;;;7.78;5.38;;;;;;;11.68;100.00;99276.47;5172967;27;20049;-63
2022/09/21 05:49:57;;;;;;;13.18;5.82;;;;;;;11.70;100.00;99290.63;5172671;27;20046;-63
2022/09/21 05:52:34;;;;;;;8.05;5.55;;;;;;;11.83;100.00;99296.69;5172953;27;20050;-62
2022/09/21 05:55:09;;;;;;;9.50;5.95;;;;;;;11.67;100.00;99311.38;5172393;27;20052;-63
2022/09/21 05:57:45;;;;;;;8.45;5.65;;;;;;;11.98;100.00;99315.00;5172544;27;20042;-64
2022/09/21 06:00:17;;;;;;;8.45;5.70;;;;;;;11.84;100.00;99318.34;5172414;27;20119;-63
2022/09/21 06:02:57;;;;;;;9.45;6.65;;;;;;;11.81;100.00;99305.31;5172141;27;20142;-62
2022/09/21 06:05:23;;;;;;;11.50;6.88;;;;;;;11.82;100.00;99281.38;5172491;27;20053;-61
2022/09/21 06:07:50;;;;;;;11.93;5.95;;;;;;;11.74;100.00;99294.22;5172186;27;20102;-64
2022/09/21 06:10:17;;;;;;;13.05;6.85;;;;;;;11.51;100.00;99283.28;5172508;27;20050;-64
2022/09/21 06:12:44;;;;;;;9.75;6.13;;;;;;;11.19;100.00;99267.06;5172140;27;20058;-62
2022/09/21 06:15:13;;;;;;;9.57;6.25;;;;;;;11.52;100.00;99262.88;5172428;27;20086;-63
2022/09/21 06:17:39;;;;;;;8.15;5.55;;;;;;;11.65;100.00;99267.00;5171971;27;20046;-63
2022/09/21 06:20:07;;;;;;;4.88;4.35;;;;;;;11.55;100.00;99286.84;5172298;27;20114;-63
2022/09/21 06:22:33;;;;;;;6.32;4.55;;;;;;;11.54;100.00;99310.00;5171943;27;20061;-62
2022/09/21 06:25:00;;;;;;;7.30;4.82;;;;;;;12.04;100.00;99299.00;5172131;27;20114;-63
2022/09/21 06:27:27;;;;;;;8.18;5.30;;;;;;;12.19;100.00;99323.53;5172193;27;20171;-66
2022/09/21 06:29:54;;;;;;;5.85;4.95;;;;;;;12.32;100.00;99337.84;5171775;27;20050;-65
2022/09/21 06:32:20;;;;;;;5.03;3.85;;;;;;;12.70;100.00;99378.03;5172094;27;20086;-63
2022/09/21 06:34:46;;;;;;;5.90;3.90;;;;;;;13.06;100.00;99403.25;5171760;27;20500;-64
2022/09/21 06:37:12;;;;;;;5.70;4.00;;;;;;;13.24;100.00;99408.97;5172553;27;20054;-63
2022/09/21 06:39:39;;;;;;;9.23;4.32;;;;;;;13.46;100.00;99418.22;5175523;27;20048;-62
2022/09/21 06:42:06;;;;;;;5.72;3.97;;;;;;;13.48;100.00;99417.88;5175406;27;20050;-63
2022/09/21 06:44:32;;;;;;;5.20;3.58;;;;;;;14.32;100.00;99407.94;5175387;27;20057;-63
2022/09/21 06:46:58;;;;;;;6.72;3.90;;;;;;;14.22;100.00;99378.31;5175672;27;20054;-64
2022/09/21 06:49:27;;;;;;;8.75;3.78;;;;;;;14.51;100.00;99332.44;5175428;27;20047;-64
2022/09/21 06:51:53;;;;;;;5.28;3.72;;;;;;;14.15;100.00;99309.34;5175413;27;20046;-64
2022/09/21 06:54:20;;;;;;;5.43;4.00;;;;;;;14.06;100.00;99312.44;5175392;27;20099;-64
2022/09/21 06:56:46;;;;;;;4.50;3.83;;;;;;;14.00;100.00;99342.34;5175127;27;20054;-64
2022/09/21 06:59:13;;;;;;;7.10;3.75;;;;;;;13.92;100.00;99348.97;5175361;27;20162;-65
2022/09/21 07:01:39;;;;;;;7.15;3.92;;;;;;;14.31;100.00;99352.00;5175085;27;20054;-65
2022/09/21 07:04:08;;;;;;;5.00;3.88;;;;;;;14.26;100.00;99285.38;5175577;27;20046;-65
2022/09/21 07:06:34;;;;;;;5.15;4.63;;;;;;;14.96;100.00;99175.63;5174960;27;20497;-64
2022/09/21 07:09:01;;;;;;;9.02;3.60;;;;;;;14.94;100.00;99128.31;5175346;27;20508;-62
2022/09/21 07:11:27;;;;;;;3.75;2.58;;;;;;;15.68;100.00;98958.84;5175041;27;20058;-62
2022/09/21 07:13:54;;;;;;;2.92;2.47;;;;;;;15.68;100.00;98864.09;5174979;27;20443;-62
2022/09/21 07:16:22;;;;;;;4.65;3.05;;;;;;;15.40;100.00;98810.59;5174992;27;20425;-61
2022/09/21 07:18:48;;;;;;;4.07;2.47;;;;;;;15.26;100.00;98780.31;5174863;27;20068;-61
2022/09/21 07:21:14;;;;;;;3.20;2.50;;;;;;;14.85;100.00;98912.66;5174838;27;20493;-62
2022/09/21 07:23:41;;;;;;;2.53;2.25;;;;;;;14.22;100.00;99045.47;5174926;27;20065;-62
2022/09/21 07:26:10;;;;;;;1.85;1.70;;;;;;;13.76;100.00;99090.28;5174808;27;20046;-61
2022/09/21 07:28:37;;;;;;;1.75;1.60;;;;;;;13.72;100.00;99023.34;5174790;27;20145;-61
2022/09/21 07:31:06;;;;;;;2.33;2.13;;;;;;;13.39;100.00;99181.34;5174723;27;20177;-62
2022/09/21 07:33:34;;;;;;;2.60;1.88;;;;;;;13.57;100.00;99332.97;5174596;27;20050;-62
2022/09/21 07:36:08;;;;;;;3.78;1.90;;;;;;;13.59;100.00;99328.66;5175094;27;20057;-62
2022/09/21 07:38:35;;;;;;;1.27;1.20;;;;;;;12.97;100.00;99390.94;5174953;27;20602;-60
2022/09/21 07:41:02;;;;;;;1.20;1.10;;;;;;;13.13;100.00;99353.78;5175096;27;20564;-61
2022/09/21 07:43:28;;;;;;;1.30;1.17;;;;;;;12.67;100.00;99409.03;5174892;27;20050;-60
2022/09/21 07:45:54;;;;;;;1.60;1.50;;;;;;;12.57;100.00;99389.66;5174632;27;20042;-61
2022/09/21 07:48:21;;;;;;;4.85;1.30;;;;;;;12.72;100.00;99386.69;5174615;27;20145;-61
2022/09/21 07:50:48;;;;;;;1.45;1.30;;;;;;;12.87;100.00;99384.94;5173769;27;20107;-61
2022/09/21 07:53:16;;;;;;;1.55;1.20;;;;;;;12.85;100.00;99370.75;5174593;27;20386;-61
2022/09/21 07:55:42;;;;;;;2.90;1.90;;;;;;;12.72;100.00;99427.16;5174649;27;20057;-61
2022/09/21 08:00:53;;;;;;;4.30;2.15;;;;;;;13.04;100.00;99457.88;5174247;27;20045;-61
2022/09/21 08:03:19;;;;;;;1.88;1.75;;;;;;;12.95;100.00;99454.59;5174628;27;20133;-61
2022/09/21 08:05:45;;;;;;;2.03;1.77;;;;;;;13.07;100.00;99462.63;5174175;27;20108;-61
2022/09/21 08:08:14;;;;;;;3.22;2.15;;;;;;;13.36;100.00;99471.22;5174221;27;20545;-61
2022/09/21 08:10:40;;;;;;;2.35;2.10;;;;;;;12.84;100.00;99456.44;5174358;27;20406;-61
2022/09/21 08:13:06;;;;;;;3.20;2.90;;;;;;;13.10;100.00;99463.84;5173860;27;20544;-61
2022/09/21 08:15:33;;;;;;;5.80;3.00;;;;;;;13.17;100.00;99466.69;5174020;27;20050;-61
2022/09/21 08:18:01;;;;;;;5.90;2.80;;;;;;;13.56;100.00;99467.16;5174015;27;20053;-61
2022/09/21 08:20:28;;;;;;;4.57;3.03;;;;;;;13.73;100.00;99449.22;5174003;27;20046;-61
2022/09/21 08:22:55;;;;;;;4.38;3.10;;;;;;;13.69;100.00;99453.88;5173869;27;20053;-61
2022/09/21 08:25:22;;;;;;;4.80;3.60;;;;;;;13.87;100.00;99452.09;5173964;27;20042;-61
2022/09/21 08:27:49;;;;;;;4.43;2.90;;;;;;;13.73;100.00;99431.88;5173817;27;20046;-62
2022/09/21 08:30:15;;;;;;;6.72;2.90;;;;;;;14.11;100.00;99417.66;5173771;27;20080;-61
2022/09/21 08:32:41;;;;;;;4.32;3.30;;;;;;;13.97;100.00;99383.69;5173695;27;20057;-61
2022/09/21 08:35:08;;;;;;;6.07;3.17;;;;;;;13.82;100.00;99410.31;5174083;27;20065;-61
2022/09/21 08:37:36;;;;;;;6.85;2.95;;;;;;;13.89;100.00;99400.16;5173714;27;20079;-62
2022/09/21 08:40:04;;;;;;;4.90;2.70;;;;;;;14.00;100.00;99358.91;5173786;27;20081;-61
2022/09/21 08:42:39;;;;;;;3.90;3.17;;;;;;;13.92;100.00;99364.72;5173757;27;20114;-62
2022/09/21 08:45:12;;;;;;;4.50;3.00;;;;;;;14.30;100.00;99378.00;5174011;27;20056;-62
2022/09/21 08:47:42;;;;;;;4.70;2.63;;;;;;;14.30;100.00;99289.75;5173713;27;20102;-62
2022/09/21 08:50:22;;;;;;;2.75;2.53;;;;;;;14.59;100.00;99213.44;5173560;27;20042;-61
2022/09/21 08:52:51;;;;;;;6.10;2.53;;;;;;;14.94;100.00;99139.38;5173440;27;20050;-61
2022/09/21 08:55:19;;;;;;;2.85;2.65;;;;;;;14.81;100.00;99097.56;5173348;27;20548;-61
2022/09/21 08:57:46;;;;;;;2.92;2.70;;;;;;;14.29;100.00;99243.25;5173190;27;20397;-61
2022/09/21 09:00:15;;;;;;;8.43;2.67;;;;;;;14.85;100.00;99145.25;5172896;27;20531;-61
2022/09/21 09:03:04;;;;;;;3.30;3.00;;;;;;;14.63;100.00;99119.66;5172611;27;20057;-61
2022/09/21 09:05:43;;;;;;;3.53;2.50;;;;;;;14.51;100.00;99188.97;5173506;27;20129;-62
2022/09/21 09:08:31;;;;;;;3.05;2.22;;;;;;;14.70;100.00;99234.75;5173129;27;20469;-61
2022/09/21 09:11:09;;;;;;;2.60;2.40;;;;;;;14.50;100.00;99261.88;5173492;27;20125;-62
2022/09/21 09:13:56;;;;;;;5.95;2.42;;;;;;;14.46;100.00;99352.88;5172970;27;20050;-61
2022/09/21 09:16:33;;;;;;;4.70;2.30;;;;;;;14.75;100.00;99300.59;5172992;27;20092;-62
2022/09/21 09:19:14;;;;;;;2.75;2.40;;;;;;;14.76;100.00;99202.81;5173426;27;20042;-62
2022/09/21 09:21:46;;;;;;;2.38;2.20;;;;;;;14.80;100.00;99237.53;5211313;27;20122;-62
2022/09/21 09:24:17;;;;;;;3.03;2.67;;;;;;;14.99;100.00;99194.16;5189671;27;20050;-62
2022/09/21 09:26:48;;;;;;;4.28;2.00;;;;;;;14.39;100.00;99129.41;5189946;27;20844;-62
2022/09/21 09:29:21;;;;;;;1.92;1.65;;;;;;;14.68;100.00;99112.94;5189562;27;20464;-62
2022/09/21 09:31:49;;;;;;;1.93;1.83;;;;;;;14.65;100.00;99210.28;5189681;27;20137;-61
2022/09/21 09:34:21;;;;;;;3.38;2.05;;;;;;;14.94;100.00;99211.91;5189468;27;20183;-61
2022/09/21 09:36:55;;;;;;;2.72;1.45;;;;;;;14.71;100.00;99125.94;5189635;27;20046;-61
2022/09/21 09:39:21;;;;;;;;;;;;;;;14.77;100.00;99009.25;5190165;27;20075;-62
2022/09/21 09:42:13;;;;;;;1.45;1.35;;;;;;;14.84;100.00;98933.94;5189676;27;19926;-61
2022/09/21 09:45:01;;;;;;;1.77;1.67;;;;;;;15.50;100.00;98978.25;5189493;27;20072;-61
2022/09/21 09:47:40;;;;;;;1.40;1.30;;;;;;;15.85;100.00;98873.44;5189632;27;20042;-62
2022/09/21 09:50:12;;;;;;;1.65;1.40;;;;;;;15.69;100.00;98832.50;5189418;27;20059;-61
2022/09/21 09:52:39;;;;;;;1.50;1.40;;;;;;;15.54;100.00;98647.50;5189551;27;20110;-61
2022/09/21 09:55:19;;;;;;;2.75;1.65;;;;;;;15.44;100.00;98565.50;5189224;27;20132;-60
2022/09/21 09:57:46;;;;;;;1.65;1.52;;;;;;;15.86;100.00;98637.28;5189291;27;20042;-62
2022/09/21 10:00:14;;;;;;;3.55;1.35;;;;;;;15.90;100.00;98698.88;5188905;27;20516;-62
2022/09/21 10:02:47;;;;;;;3.22;1.45;;;;;;;15.79;100.00;98621.56;5189177;27;20112;-62
2022/09/21 10:05:20;;;;;;;2.28;1.50;;;;;;;15.38;100.00;98677.63;5189627;27;20097;-61
2022/09/21 10:07:47;;;;;;;1.30;1.20;;;;;;;15.53;100.00;98626.59;5189140;27;20046;-61
2022/09/21 10:10:31;;;;;;;2.35;1.70;;;;;;;15.52;100.00;98567.00;5189175;27;20057;-61
2022/09/21 10:13:05;;;;;;;1.17;1.10;;;;;;;14.99;100.00;98515.13;5188996;27;20573;-61
2022/09/21 10:15:32;;;;;;;1.30;1.20;;;;;;;15.55;100.00;98446.59;5189175;27;20046;-61
2022/09/21 10:18:06;;;;;;;2.08;1.35;;;;;;;15.60;100.00;98490.34;5188921;27;20441;-66
2022/09/21 10:20:32;;;;;;;2.60;1.50;;;;;;;15.66;100.00;98358.84;5188443;27;20496;-61
2022/09/21 10:23:00;;;;;;;2.90;1.55;;;;;;;15.70;100.00;98383.66;5188539;27;20073;-60
2022/09/21 10:25:26;;;;;;;3.15;1.30;;;;;;;16.16;100.00;98377.41;5188894;27;20426;-58
2022/09/21 10:27:55;;;;;;;2.33;1.80;;;;;;;16.24;100.00;98384.34;5188546;27;20058;-61
2022/09/21 10:30:37;;;;;;;1.73;1.60;;;;;;;15.79;100.00;98308.50;5188547;27;20050;-60
2022/09/21 10:33:17;;;;;;;3.40;1.40;;;;;;;15.44;100.00;98217.50;5175065;27;20485;-61
2022/09/21 10:35:50;;;;;;;1.83;1.35;;;;;;;15.32;100.00;98317.50;5174294;27;20046;-59
2022/09/21 10:38:18;;;;;;;2.58;1.27;;;;;;;15.46;100.00;98402.94;5174672;27;20042;-59
2022/09/21 10:40:46;;;;;;;1.42;1.33;;;;;;;15.78;100.00;98266.28;5174305;27;20049;-66
2022/09/21 10:43:23;;;;;;;1.60;1.50;;;;;;;15.60;100.00;98247.22;5174516;27;20095;-67
2022/09/21 10:45:55;;;;;;;1.50;1.40;;;;;;;15.76;100.00;98255.66;5174783;27;20100;-67
2022/09/21 10:48:24;;;;;;;6.82;1.52;;;;;;;15.98;100.00;98228.41;5174328;27;20050;-69
2022/09/21 10:50:52;;;;;;;2.55;1.05;;;;;;;15.77;100.00;98185.38;5174446;27;20050;-71
2022/09/21 10:53:27;;;;;;;1.88;1.00;;;;;;;15.66;100.00;98118.50;5174013;27;20505;-66
2022/09/21 10:55:57;;;;;;;3.80;1.25;;;;;;;15.99;100.00;98079.91;5174269;27;20091;-67
2022/09/21 10:58:24;;;;;;;2.70;1.35;;;;;;;16.21;100.00;98060.88;5174120;27;20074;-70
2022/09/21 11:00:51;;;;;;;1.25;1.10;;;;;;;16.15;100.00;98032.94;5174419;27;20054;-70
2022/09/21 11:03:44;;;;;;;1.25;1.13;;;;;;;16.34;100.00;98053.47;5174004;27;20050;-70
2022/09/21 11:06:15;;;;;;;2.67;1.05;;;;;;;16.47;100.00;98079.22;5173880;27;20428;-68
2022/09/21 11:08:53;;;;;;;3.50;1.38;;;;;;;16.29;100.00;98100.19;5174273;27;20050;-68
2022/09/21 11:11:43;;;;;;;2.05;1.30;;;;;;;16.19;100.00;98053.03;5173906;27;20141;-73
2022/09/21 11:14:41;;;;;;;1.98;1.63;;;;;;;16.12;100.00;98064.22;5173963;27;20050;-73
2022/09/21 11:17:12;;;;;;;1.02;1.00;;;;;;;15.65;100.00;98061.63;5173690;27;20050;-69
2022/09/21 11:19:44;;;;;;;1.50;1.40;;;;;;;15.28;100.00;98096.66;5173775;27;20099;-72
2022/09/21 11:22:19;;;;;;;1.20;1.00;;;;;;;15.30;100.00;98074.94;5173581;27;20504;-76
2022/09/21 11:24:56;;;;;;;1.85;1.50;;;;;;;14.90;100.00;98173.41;5173792;27;20047;-67
2022/09/21 11:27:26;;;;;;;1.30;1.20;;;;;;;15.27;100.00;98163.34;5173999;27;20053;-67
2022/09/21 11:30:01;;;;;;;1.58;1.35;;;;;;;15.02;100.00;98092.78;5173535;27;20061;-69
2022/09/21 11:32:56;;;;;;;1.17;1.05;;;;;;;15.29;100.00;98178.31;5173882;27;20425;-71
2022/09/21 11:35:35;;;;;;;;;;;;;;;14.97;100.00;98078.69;5174030;27;20485;-70
2022/09/21 11:38:08;;;;;;;1.42;1.15;;;;;;;15.20;100.00;98111.03;5173386;27;20389;-68